Spring Mountain Youth Camp, Nevada Weather observations

Data are for 60 minute period ending at time listed.
 Day   Time   Solar   Ave.   Ave.  Ave.  Vector  Max.   Baro.   Total    
  of    of     Rad.   Air    Rel.  Wind   Wind   Wind  Press.  Precip.   
Year   Day            Temp.  Hum.  Speed  Dir.   Gust                    
2014   (PST)  Kw/m2    F      %     mph   deg.    mph    mb.     in.     
-------------------------------------------------------------------------
 231    9:00   0.65   62.8    31    9.4   166    25.1   791.4    0.00 
 231   10:00   0.83   63.5    37    6.8   144    25.0   791.5    0.00 
 231   11:00   0.94   64.0    34   14.1   158    33.8   791.4    0.00 
 231   12:00   1.00   65.2    27   13.7   163    28.7   791.1    0.00 
 231   13:00   0.98   66.3    25   13.9   162    27.2   790.9    0.00 
 231   14:00   0.93   67.4    22   10.6   169    23.8   790.7    0.00 
 231   15:00   0.80   66.7    19   13.4   168    24.4   790.6    0.00 
 231   16:00   0.61   65.6    20   14.4   170    25.1   790.4    0.00 
 231   17:00   0.40   64.1    24   13.9   172    23.2   790.3    0.00 
 231   18:00   0.16   61.5    29   14.0   165    25.5   790.1    0.00 
 231   19:00   0.01   55.1    80   10.2   151    20.0   790.0    0.00 
 231   20:00   0.00   54.2    72   12.3   160    21.8   790.1    0.00 
 231   21:00   0.00   55.0    48   10.7   157    18.0   790.6    0.00 
 231   22:00   0.00   55.0    38    7.0   144    16.9   790.9    0.00 
 231   23:00   0.00   56.3    32    2.3    70     7.3   791.2    0.00 
 232    0:00   0.00   56.1    32    4.0    57     8.8   791.3    0.00 
 232    1:00   0.00   55.7    37    3.1   104     6.5   791.3    0.00 
 232    2:00   0.00   53.7    42    4.8   154     7.9   791.2    0.00 
 232    3:00   0.00   52.1    42    5.4   155    10.9   791.1    0.00 
 232    4:00   0.00   51.1    49    7.9   162    12.9   791.1    0.00 
 232    5:00   0.00   51.1    55    9.5   166    16.3   791.2    0.00 
 232    6:00   0.02   51.8    54   11.6   167    20.9   791.6    0.00 
 232    7:00   0.20   55.7    38   12.1   174    36.5   792.0    0.00 
 232    8:00   0.25   57.5    37   17.1   174    34.8   792.2    0.00 

Return to Spring Mountain Youth Camp graphs page.


Western Regional Climate Center,wrcc@dri.edu